createdAt,value
2018-04-15T00:00:45.877Z,0.00
2018-04-15T00:01:45.813Z,0.00
2018-04-15T00:02:45.751Z,0.00
2018-04-15T00:03:45.687Z,0.00
2018-04-15T00:04:45.620Z,0.00
2018-04-15T00:05:45.570Z,0.00
2018-04-15T00:06:45.497Z,0.00
2018-04-15T00:07:45.436Z,0.00
2018-04-15T00:08:45.371Z,0.00
2018-04-15T00:09:45.326Z,0.00
2018-04-15T00:10:45.259Z,0.00
2018-04-15T00:11:45.183Z,0.00
2018-04-15T00:12:45.124Z,0.00
2018-04-15T00:13:45.071Z,0.00
2018-04-15T00:14:44.993Z,0.00
2018-04-15T00:15:44.928Z,0.00
2018-04-15T00:16:44.868Z,0.00
2018-04-15T00:17:44.802Z,0.00
2018-04-15T00:18:44.740Z,0.00
2018-04-15T00:19:44.686Z,0.00
2018-04-15T00:20:44.612Z,0.00
2018-04-15T00:21:44.550Z,0.00
2018-04-15T00:22:44.493Z,0.00
2018-04-15T00:23:44.424Z,0.00
2018-04-15T00:24:44.364Z,0.00
2018-04-15T00:25:44.298Z,0.00
2018-04-15T00:26:44.245Z,0.00
2018-04-15T00:27:44.187Z,0.00
2018-04-15T00:28:44.110Z,0.00
2018-04-15T00:29:44.055Z,0.00
2018-04-15T00:30:43.987Z,0.00
2018-04-15T00:31:43.918Z,0.00
2018-04-15T00:32:43.869Z,0.00
2018-04-15T00:33:43.792Z,0.00
2018-04-15T00:34:43.729Z,0.00
2018-04-15T00:35:43.686Z,0.00
2018-04-15T00:36:43.603Z,0.00
2018-04-15T00:37:43.539Z,0.00
2018-04-15T00:38:43.487Z,0.00
2018-04-15T00:39:43.411Z,0.00
2018-04-15T00:40:43.348Z,0.00
2018-04-15T00:41:43.288Z,0.00
2018-04-15T00:42:43.226Z,0.00
2018-04-15T00:43:43.168Z,0.00
2018-04-15T00:44:43.095Z,0.00
2018-04-15T00:45:43.031Z,0.00
2018-04-15T00:46:42.994Z,0.00
2018-04-15T00:47:42.902Z,0.00
2018-04-15T00:48:42.840Z,0.00
2018-04-15T00:49:42.776Z,0.00
2018-04-15T00:50:42.713Z,0.00
2018-04-15T00:51:42.667Z,0.00
2018-04-15T00:52:42.588Z,0.00
2018-04-15T00:53:42.521Z,0.00
2018-04-15T00:54:42.459Z,0.00
2018-04-15T00:55:42.394Z,0.00
2018-04-15T00:56:42.332Z,0.00
2018-04-15T00:57:42.269Z,0.00
2018-04-15T00:58:42.204Z,0.00
2018-04-15T00:59:42.146Z,0.00
2018-04-15T01:00:42.079Z,0.00
2018-04-15T01:01:42.015Z,0.00
2018-04-15T01:02:41.951Z,0.00
2018-04-15T01:03:41.888Z,0.00
2018-04-15T01:04:41.825Z,0.00
2018-04-15T01:05:41.762Z,0.00
2018-04-15T01:06:41.701Z,0.00
2018-04-15T01:07:41.631Z,0.00
2018-04-15T01:08:41.570Z,0.00
2018-04-15T01:09:41.506Z,0.00
2018-04-15T01:10:41.445Z,0.00
2018-04-15T01:11:41.378Z,0.00
2018-04-15T01:12:41.314Z,0.00
2018-04-15T01:13:41.252Z,0.00
2018-04-15T01:14:41.193Z,0.00
2018-04-15T01:15:41.125Z,0.00
2018-04-15T01:16:41.061Z,0.00
2018-04-15T01:17:40.995Z,0.00
2018-04-15T01:18:40.940Z,0.00
2018-04-15T01:19:40.871Z,0.00
2018-04-15T01:20:40.807Z,0.00
2018-04-15T01:21:40.742Z,0.00
2018-04-15T01:22:40.691Z,0.00
2018-04-15T01:23:40.617Z,0.00
2018-04-15T01:24:40.548Z,0.00
2018-04-15T01:25:40.489Z,0.00
2018-04-15T01:26:40.426Z,0.00
2018-04-15T01:27:40.359Z,0.00
2018-04-15T01:28:40.298Z,0.00
2018-04-15T01:29:40.232Z,0.00
2018-04-15T01:30:40.168Z,0.00
2018-04-15T01:31:40.105Z,0.00
2018-04-15T01:32:40.042Z,0.00
2018-04-15T01:33:39.977Z,0.00
2018-04-15T01:34:39.915Z,0.00
2018-04-15T01:35:39.851Z,0.00
2018-04-15T01:36:39.787Z,0.00
2018-04-15T01:37:39.722Z,0.00
2018-04-15T01:38:39.659Z,0.00
2018-04-15T01:39:39.596Z,0.00
2018-04-15T01:40:39.532Z,0.00
2018-04-15T01:41:39.471Z,0.00
2018-04-15T01:42:39.405Z,0.00
2018-04-15T01:43:39.340Z,0.00
2018-04-15T01:44:39.275Z,0.00
2018-04-15T01:45:39.211Z,0.00
2018-04-15T01:46:39.147Z,0.00
2018-04-15T01:47:39.085Z,0.00
2018-04-15T01:48:39.024Z,0.00
2018-04-15T01:49:38.958Z,0.00
2018-04-15T01:50:38.900Z,0.00
2018-04-15T01:51:38.828Z,0.00
2018-04-15T01:52:38.765Z,0.00
2018-04-15T01:53:38.696Z,0.00
2018-04-15T01:54:38.638Z,0.00
2018-04-15T01:55:38.575Z,0.00
2018-04-15T01:56:38.507Z,0.00
2018-04-15T01:57:38.442Z,0.00
2018-04-15T01:58:38.384Z,0.00
2018-04-15T01:59:38.316Z,0.00
2018-04-15T02:00:38.254Z,0.00
2018-04-15T02:01:38.189Z,0.00
2018-04-15T02:02:38.128Z,0.00
2018-04-15T02:03:38.062Z,0.00
2018-04-15T02:04:37.997Z,0.00
2018-04-15T02:05:37.951Z,0.00
2018-04-15T02:06:37.866Z,0.00
2018-04-15T02:07:37.826Z,0.00
2018-04-15T02:08:37.744Z,0.00
2018-04-15T02:09:37.675Z,0.00
2018-04-15T02:10:37.665Z,0.00
2018-04-15T02:11:37.550Z,0.00
2018-04-15T02:12:37.493Z,0.00
2018-04-15T02:13:37.428Z,0.00
2018-04-15T02:14:37.366Z,0.00
2018-04-15T02:15:37.314Z,0.00
2018-04-15T02:16:37.233Z,0.00
2018-04-15T02:17:37.170Z,0.00
2018-04-15T02:18:37.113Z,0.00
2018-04-15T02:19:37.040Z,0.00
2018-04-15T02:20:36.976Z,0.00
2018-04-15T02:21:36.914Z,0.00
2018-04-15T02:22:36.889Z,0.00
2018-04-15T02:23:36.785Z,0.00
2018-04-15T02:24:36.724Z,0.00
2018-04-15T02:25:36.656Z,0.00
2018-04-15T02:26:36.592Z,0.00
2018-04-15T02:27:36.528Z,0.00
2018-04-15T02:28:36.464Z,0.00
2018-04-15T02:29:36.410Z,0.00
2018-04-15T02:30:36.334Z,0.00
2018-04-15T02:31:36.273Z,0.00
2018-04-15T02:32:36.213Z,0.00
2018-04-15T02:33:36.143Z,0.00
2018-04-15T02:34:36.107Z,0.00
2018-04-15T02:35:36.026Z,0.00
2018-04-15T02:36:35.952Z,0.00
2018-04-15T02:37:35.890Z,0.00
2018-04-15T02:38:35.843Z,0.00
2018-04-15T02:39:35.757Z,0.00
2018-04-15T02:40:35.693Z,0.00
2018-04-15T02:41:35.635Z,0.00
2018-04-15T02:42:35.566Z,0.00
2018-04-15T02:43:35.504Z,0.00
2018-04-15T02:44:35.441Z,0.00
2018-04-15T02:45:35.377Z,0.00
2018-04-15T02:46:35.311Z,0.00
2018-04-15T02:47:35.247Z,0.00
2018-04-15T02:48:35.184Z,0.00
2018-04-15T02:49:35.123Z,0.00
2018-04-15T02:50:35.055Z,0.00
2018-04-15T02:51:34.992Z,0.00
2018-04-15T02:52:34.927Z,0.00
2018-04-15T02:53:34.862Z,0.00
2018-04-15T02:54:34.798Z,0.00
2018-04-15T02:55:34.734Z,0.00
2018-04-15T02:56:34.674Z,0.00
2018-04-15T02:57:34.605Z,0.00
2018-04-15T02:58:34.596Z,0.00
2018-04-15T02:59:34.478Z,0.00
2018-04-15T03:00:34.410Z,0.00
2018-04-15T03:01:34.347Z,0.00
2018-04-15T03:02:34.288Z,0.00
2018-04-15T03:03:34.223Z,0.00
2018-04-15T03:04:34.157Z,0.00
2018-04-15T03:05:34.092Z,0.00
2018-04-15T03:06:34.027Z,0.00
2018-04-15T03:07:33.964Z,0.00
2018-04-15T03:08:33.900Z,0.00
2018-04-15T03:09:33.834Z,0.00
2018-04-15T03:10:33.771Z,0.00
2018-04-15T03:11:33.706Z,0.00
2018-04-15T03:12:33.642Z,0.00
2018-04-15T03:13:33.577Z,0.00
2018-04-15T03:14:33.517Z,0.00
2018-04-15T03:15:33.450Z,0.00
2018-04-15T03:16:33.384Z,0.00
2018-04-15T03:17:33.323Z,0.00
2018-04-15T03:18:33.256Z,0.00
2018-04-15T03:19:33.191Z,0.00
2018-04-15T03:20:33.129Z,0.00
2018-04-15T03:21:33.063Z,0.00
2018-04-15T03:22:32.998Z,0.00
2018-04-15T03:23:32.935Z,0.00
2018-04-15T03:24:32.877Z,0.00
2018-04-15T03:25:32.807Z,0.00
2018-04-15T03:26:32.740Z,0.00
2018-04-15T03:27:32.678Z,0.00
2018-04-15T03:28:32.613Z,0.00
2018-04-15T03:29:32.547Z,0.00
2018-04-15T03:30:32.486Z,0.00
2018-04-15T03:31:32.423Z,0.00
2018-04-15T03:32:32.399Z,0.00
2018-04-15T03:33:32.293Z,0.00
2018-04-15T03:34:32.227Z,0.00
2018-04-15T03:35:32.167Z,0.00
2018-04-15T03:36:32.099Z,0.00
2018-04-15T03:37:32.036Z,0.00
2018-04-15T03:38:31.972Z,0.00
2018-04-15T03:39:31.906Z,0.00
2018-04-15T03:40:31.847Z,0.00
2018-04-15T03:41:31.793Z,0.00
2018-04-15T03:42:31.713Z,0.00
2018-04-15T03:43:31.649Z,0.00
2018-04-15T03:44:31.585Z,0.00
2018-04-15T03:45:31.519Z,0.00
2018-04-15T03:46:31.458Z,0.00
2018-04-15T03:47:31.393Z,0.00
2018-04-15T03:48:31.327Z,0.00
2018-04-15T03:49:31.261Z,0.00
2018-04-15T03:50:31.199Z,0.00
2018-04-15T03:51:31.134Z,0.00
2018-04-15T03:52:31.074Z,0.00
2018-04-15T03:53:31.007Z,0.00
2018-04-15T03:54:30.942Z,0.00
2018-04-15T03:55:30.878Z,0.00
2018-04-15T03:56:30.814Z,0.00
2018-04-15T03:57:30.749Z,0.00
2018-04-15T03:58:30.685Z,0.00
2018-04-15T03:59:30.622Z,0.00
2018-04-15T04:00:30.556Z,0.00
2018-04-15T04:01:30.494Z,0.00
2018-04-15T04:02:30.429Z,0.00
2018-04-15T04:03:30.365Z,0.00
2018-04-15T04:04:30.300Z,0.00
2018-04-15T04:05:30.234Z,0.00
2018-04-15T04:06:30.172Z,0.00
2018-04-15T04:07:30.108Z,0.00
2018-04-15T04:08:30.044Z,4.00
2018-04-15T04:09:29.978Z,0.00
2018-04-15T04:10:29.913Z,4.00
2018-04-15T04:11:29.852Z,4.00
2018-04-15T04:12:29.786Z,4.00
2018-04-15T04:13:29.721Z,4.00
2018-04-15T04:14:29.656Z,8.00
2018-04-15T04:15:29.594Z,8.00
2018-04-15T04:16:29.529Z,4.00
2018-04-15T04:17:29.465Z,8.00
2018-04-15T04:18:29.400Z,8.00
2018-04-15T04:19:29.339Z,12.00
2018-04-15T04:20:29.292Z,12.00
2018-04-15T04:21:29.252Z,12.00
2018-04-15T04:22:29.144Z,12.00
2018-04-15T04:23:29.081Z,16.00
2018-04-15T04:24:29.015Z,16.00
2018-04-15T04:25:28.951Z,16.00
2018-04-15T04:26:28.887Z,20.00
2018-04-15T04:27:28.824Z,20.00
2018-04-15T04:28:28.758Z,24.00
2018-04-15T04:29:28.694Z,24.00
2018-04-15T04:30:28.630Z,28.00
2018-04-15T04:31:28.568Z,28.00
2018-04-15T04:32:28.502Z,32.00
2018-04-15T04:33:28.440Z,32.00
2018-04-15T04:34:28.372Z,36.00
2018-04-15T04:35:28.310Z,40.00
2018-04-15T04:36:28.244Z,44.00
2018-04-15T04:37:28.182Z,44.00
2018-04-15T04:38:28.118Z,48.00
2018-04-15T04:39:28.053Z,52.00
2018-04-15T04:40:27.989Z,52.00
2018-04-15T04:41:27.923Z,56.00
2018-04-15T04:42:27.861Z,60.00
2018-04-15T04:43:27.797Z,64.00
2018-04-15T04:44:27.735Z,68.00
2018-04-15T04:45:27.664Z,80.00
2018-04-15T04:46:27.600Z,88.00
2018-04-15T04:47:27.539Z,92.00
2018-04-15T04:48:27.474Z,96.00
2018-04-15T04:49:27.410Z,104.00
2018-04-15T04:50:27.347Z,108.00
2018-04-15T04:51:27.282Z,112.00
2018-04-15T04:52:27.216Z,124.00
2018-04-15T04:53:27.154Z,132.00
2018-04-15T04:54:27.088Z,136.00
2018-04-15T04:55:27.026Z,140.00
2018-04-15T04:56:26.961Z,144.00
2018-04-15T04:57:26.896Z,152.00
2018-04-15T04:58:26.832Z,164.00
2018-04-15T04:59:26.770Z,168.00
2018-04-15T05:00:26.705Z,172.00
2018-04-15T05:01:26.638Z,172.00
2018-04-15T05:02:26.579Z,176.00
2018-04-15T05:03:26.510Z,176.00
2018-04-15T05:04:26.459Z,188.00
2018-04-15T05:05:26.381Z,200.00
2018-04-15T05:06:26.318Z,212.00
2018-04-15T05:07:26.255Z,220.00
2018-04-15T05:08:26.187Z,224.00
2018-04-15T05:09:26.122Z,232.00
2018-04-15T05:10:26.060Z,252.00
2018-04-15T05:11:25.996Z,268.00
2018-04-15T05:12:25.931Z,276.00
2018-04-15T05:13:25.870Z,280.00
2018-04-15T05:14:25.802Z,280.00
2018-04-15T05:15:25.737Z,288.00
2018-04-15T05:16:25.674Z,296.00
2018-04-15T05:17:25.609Z,300.00
2018-04-15T05:18:25.546Z,300.00
2018-04-15T05:19:25.483Z,300.00
2018-04-15T05:20:25.418Z,300.00
2018-04-15T05:21:25.354Z,304.00
2018-04-15T05:22:25.288Z,312.00
2018-04-15T05:23:25.226Z,320.00
2018-04-15T05:24:25.179Z,324.00
2018-04-15T05:25:25.129Z,332.00
2018-04-15T05:26:25.032Z,344.00
2018-04-15T05:27:24.968Z,360.00
2018-04-15T05:28:24.903Z,376.00
2018-04-15T05:29:24.851Z,392.00
2018-04-15T05:30:24.778Z,416.00
2018-04-15T05:31:24.716Z,452.00
2018-04-15T05:32:24.648Z,484.00
2018-04-15T05:33:24.584Z,508.00
2018-04-15T05:34:24.521Z,520.00
2018-04-15T05:35:24.453Z,516.00
2018-04-15T05:36:24.391Z,516.00
2018-04-15T05:37:24.325Z,512.00
2018-04-15T05:38:24.261Z,512.00
2018-04-15T05:39:24.198Z,512.00
2018-04-15T05:40:24.140Z,516.00
2018-04-15T05:41:24.069Z,524.00
2018-04-15T05:42:24.004Z,548.00
2018-04-15T05:43:23.942Z,560.00
2018-04-15T05:44:23.877Z,572.00
2018-04-15T05:45:23.813Z,584.00
2018-04-15T05:46:23.748Z,592.00
2018-04-15T05:47:23.718Z,596.00
2018-04-15T05:48:23.622Z,596.00
2018-04-15T05:49:23.557Z,600.00
2018-04-15T05:50:23.493Z,608.00
2018-04-15T05:51:23.429Z,616.00
2018-04-15T05:52:23.367Z,632.00
2018-04-15T05:53:23.302Z,648.00
2018-04-15T05:54:23.237Z,664.00
2018-04-15T05:55:23.172Z,676.00
2018-04-15T05:56:23.108Z,684.00
2018-04-15T05:57:23.042Z,696.00
2018-04-15T05:58:22.984Z,720.00
2018-04-15T05:59:22.919Z,744.00
2018-04-15T06:00:22.852Z,756.00
2018-04-15T06:01:22.790Z,748.00
2018-04-15T06:02:22.725Z,728.00
2018-04-15T06:03:22.666Z,716.00
2018-04-15T06:04:22.598Z,712.00
2018-04-15T06:05:22.534Z,716.00
2018-04-15T06:06:22.472Z,724.00
2018-04-15T06:07:22.411Z,732.00
2018-04-15T06:08:22.346Z,740.00
2018-04-15T06:09:22.278Z,740.00
2018-04-15T06:10:22.215Z,736.00
2018-04-15T06:11:22.159Z,736.00
2018-04-15T06:12:22.093Z,740.00
2018-04-15T06:13:22.026Z,748.00
2018-04-15T06:14:21.960Z,764.00
2018-04-15T06:15:21.914Z,800.00
2018-04-15T06:16:21.833Z,844.00
2018-04-15T06:17:21.768Z,896.00
2018-04-15T06:18:21.706Z,936.00
2018-04-15T06:19:21.644Z,952.00
2018-04-15T06:20:21.579Z,956.00
2018-04-15T06:21:21.515Z,972.00
2018-04-15T06:22:21.459Z,988.00
2018-04-15T06:23:21.386Z,1016.00
2018-04-15T06:24:21.325Z,1028.00
2018-04-15T06:25:21.257Z,1024.00
2018-04-15T06:26:21.196Z,1000.00
2018-04-15T06:27:21.135Z,964.00
2018-04-15T06:28:21.070Z,920.00
2018-04-15T06:29:21.008Z,884.00
2018-04-15T06:30:20.942Z,860.00
2018-04-15T06:31:20.879Z,856.00
2018-04-15T06:32:20.816Z,864.00
2018-04-15T06:33:20.754Z,880.00
2018-04-15T06:34:20.690Z,888.00
2018-04-15T06:35:20.627Z,884.00
2018-04-15T06:36:20.567Z,880.00
2018-04-15T06:37:20.499Z,884.00
2018-04-15T06:38:20.435Z,888.00
2018-04-15T06:39:20.371Z,900.00
2018-04-15T06:40:20.307Z,908.00
2018-04-15T06:41:20.244Z,920.00
2018-04-15T06:42:20.181Z,932.00
2018-04-15T06:43:20.118Z,944.00
2018-04-15T06:44:20.054Z,960.00
2018-04-15T06:45:20.019Z,968.00
2018-04-15T06:46:19.928Z,988.00
2018-04-15T06:47:19.869Z,1004.00
2018-04-15T06:48:19.801Z,1012.00
2018-04-15T06:49:19.793Z,1012.00
2018-04-15T06:50:19.674Z,1004.00
2018-04-15T06:51:19.612Z,992.00
2018-04-15T06:52:19.548Z,992.00
2018-04-15T06:53:19.491Z,996.00
2018-04-15T06:54:19.420Z,1016.00
2018-04-15T06:55:19.358Z,1032.00
2018-04-15T06:56:19.298Z,1060.00
2018-04-15T06:57:19.231Z,1080.00
2018-04-15T06:58:19.172Z,1104.00
2018-04-15T06:59:19.106Z,1128.00
2018-04-15T07:00:19.040Z,1140.00
2018-04-15T07:01:18.977Z,1148.00
2018-04-15T07:02:18.916Z,1164.00
2018-04-15T07:03:18.852Z,1180.00
2018-04-15T07:04:18.789Z,1184.00
2018-04-15T07:05:18.724Z,1172.00
2018-04-15T07:06:18.663Z,1148.00
2018-04-15T07:07:18.597Z,1116.00
2018-04-15T07:08:18.536Z,1084.00
2018-04-15T07:09:18.475Z,1056.00
2018-04-15T07:10:18.407Z,1032.00
2018-04-15T07:11:18.344Z,1012.00
2018-04-15T07:12:18.282Z,1000.00
2018-04-15T07:13:18.220Z,996.00
2018-04-15T07:14:18.156Z,996.00
2018-04-15T07:15:18.095Z,1008.00
2018-04-15T07:16:18.030Z,1008.00
2018-04-15T07:17:17.968Z,1000.00
2018-04-15T07:18:17.907Z,992.00
2018-04-15T07:19:17.841Z,984.00
2018-04-15T07:20:17.778Z,976.00
2018-04-15T07:21:17.716Z,976.00
2018-04-15T07:22:17.648Z,968.00
2018-04-15T07:23:17.588Z,956.00
2018-04-15T07:24:17.525Z,944.00
2018-04-15T07:25:17.462Z,936.00
2018-04-15T07:26:17.398Z,928.00
2018-04-15T07:27:17.336Z,928.00
2018-04-15T07:28:17.277Z,928.00
2018-04-15T07:29:17.211Z,940.00
2018-04-15T07:30:17.165Z,960.00
2018-04-15T07:31:17.084Z,984.00
2018-04-15T07:32:17.021Z,1012.00
2018-04-15T07:33:16.959Z,1036.00
2018-04-15T07:34:16.896Z,1060.00
2018-04-15T07:35:16.837Z,1084.00
2018-04-15T07:36:16.771Z,1108.00
2018-04-15T07:37:16.706Z,1124.00
2018-04-15T07:38:16.645Z,1132.00
2018-04-15T07:39:16.583Z,1136.00
2018-04-15T07:40:16.518Z,1140.00
2018-04-15T07:41:16.458Z,1156.00
2018-04-15T07:42:16.391Z,1176.00
2018-04-15T07:43:16.337Z,1192.00
2018-04-15T07:44:16.268Z,1196.00
2018-04-15T07:45:16.199Z,1192.00
2018-04-15T07:46:16.138Z,1184.00
2018-04-15T07:47:16.086Z,1180.00
2018-04-15T07:48:16.014Z,1188.00
2018-04-15T07:49:15.952Z,1208.00
2018-04-15T07:50:15.890Z,1240.00
2018-04-15T07:51:15.827Z,1288.00
2018-04-15T07:52:15.765Z,1340.00
2018-04-15T07:53:15.702Z,1384.00
2018-04-15T07:54:15.638Z,1424.00
2018-04-15T07:55:15.575Z,1448.00
2018-04-15T07:56:15.563Z,1464.00
2018-04-15T07:57:15.451Z,1480.00
2018-04-15T07:58:15.386Z,1496.00
2018-04-15T07:59:15.325Z,1516.00
2018-04-15T08:00:15.261Z,1540.00
2018-04-15T08:01:15.199Z,1560.00
2018-04-15T08:02:15.182Z,1604.00
2018-04-15T08:03:15.074Z,1660.00
2018-04-15T08:04:15.012Z,1708.00
2018-04-15T08:05:14.952Z,1736.00
2018-04-15T08:06:14.886Z,1780.00
2018-04-15T08:07:14.825Z,1812.00
2018-04-15T08:08:14.773Z,1868.00
2018-04-15T08:09:14.699Z,1932.00
2018-04-15T08:10:14.637Z,2136.00
2018-04-15T08:11:14.585Z,2064.00
2018-04-15T08:12:14.512Z,2056.00
2018-04-15T08:13:14.451Z,2136.00
2018-04-15T08:14:14.388Z,2280.00
2018-04-15T08:15:14.328Z,2428.00
2018-04-15T08:16:14.263Z,2464.00
2018-04-15T08:17:14.238Z,2564.00
2018-04-15T08:18:14.140Z,2608.00
2018-04-15T08:19:14.078Z,2728.00
2018-04-15T08:20:14.019Z,2648.00
2018-04-15T08:21:13.950Z,2604.00
2018-04-15T08:22:13.891Z,2648.00
2018-04-15T08:23:13.830Z,2560.00
2018-04-15T08:24:13.767Z,2508.00
2018-04-15T08:25:13.725Z,2456.00
2018-04-15T08:26:13.645Z,2364.00
2018-04-15T08:27:13.582Z,2308.00
2018-04-15T08:28:13.517Z,2268.00
2018-04-15T08:29:13.456Z,2260.00
2018-04-15T08:30:13.396Z,2312.00
2018-04-15T08:31:13.352Z,2332.00
2018-04-15T08:32:13.274Z,2332.00
2018-04-15T08:33:13.217Z,2328.00
2018-04-15T08:34:13.155Z,2380.00
2018-04-15T08:35:13.088Z,2360.00
2018-04-15T08:36:13.028Z,2340.00
2018-04-15T08:37:12.964Z,2344.00
2018-04-15T08:38:12.904Z,2340.00
2018-04-15T08:39:12.845Z,2332.00
2018-04-15T08:40:12.778Z,2308.00
2018-04-15T08:41:12.720Z,2268.00
2018-04-15T08:42:12.659Z,2260.00
2018-04-15T08:43:12.600Z,2292.00
2018-04-15T08:44:12.533Z,2400.00
2018-04-15T08:45:12.473Z,2444.00
2018-04-15T08:46:12.412Z,2316.00
2018-04-15T08:47:12.353Z,2276.00
2018-04-15T08:48:12.290Z,2236.00
2018-04-15T08:49:12.227Z,2196.00
2018-04-15T08:50:12.167Z,2160.00
2018-04-15T08:51:12.107Z,2156.00
2018-04-15T08:52:12.049Z,2164.00
2018-04-15T08:53:11.986Z,2212.00
2018-04-15T08:54:11.922Z,2276.00
2018-04-15T08:55:11.862Z,2328.00
2018-04-15T08:56:11.801Z,2424.00
2018-04-15T08:57:11.741Z,2448.00
2018-04-15T08:58:11.678Z,2476.00
2018-04-15T08:59:11.616Z,2484.00
2018-04-15T09:00:11.554Z,2508.00
2018-04-15T09:01:11.494Z,2568.00
2018-04-15T09:02:11.434Z,2716.00
2018-04-15T09:03:11.375Z,2780.00
2018-04-15T09:04:11.312Z,2700.00
2018-04-15T09:05:11.255Z,2784.00
2018-04-15T09:06:11.187Z,2764.00
2018-04-15T09:07:11.130Z,2860.00
2018-04-15T09:08:11.068Z,2856.00
2018-04-15T09:09:11.006Z,2900.00
2018-04-15T09:10:10.949Z,2988.00
2018-04-15T09:11:10.886Z,2916.00
2018-04-15T09:12:10.824Z,2844.00
2018-04-15T09:13:10.762Z,2824.00
2018-04-15T09:14:10.700Z,2820.00
2018-04-15T09:15:10.640Z,2832.00
2018-04-15T09:16:10.578Z,2804.00
2018-04-15T09:17:10.516Z,2796.00
2018-04-15T09:18:10.497Z,2872.00
2018-04-15T09:19:10.397Z,2932.00
2018-04-15T09:20:10.336Z,2984.00
2018-04-15T09:21:10.274Z,3072.00
2018-04-15T09:22:10.212Z,3132.00
2018-04-15T09:23:10.159Z,3024.00
2018-04-15T09:24:10.092Z,3044.00
2018-04-15T09:25:10.030Z,2932.00
2018-04-15T09:26:09.970Z,2916.00
2018-04-15T09:27:09.923Z,2888.00
2018-04-15T09:28:09.851Z,2852.00
2018-04-15T09:29:09.788Z,2900.00
2018-04-15T09:30:09.794Z,2996.00
2018-04-15T09:31:09.667Z,3068.00
2018-04-15T09:32:09.609Z,3136.00
2018-04-15T09:33:09.546Z,3152.00
2018-04-15T09:34:09.502Z,3244.00
2018-04-15T09:35:09.426Z,3312.00
2018-04-15T09:36:09.365Z,3264.00
2018-04-15T09:37:09.308Z,3196.00
2018-04-15T09:38:09.248Z,3172.00
2018-04-15T09:39:09.183Z,3272.00
2018-04-15T09:40:09.126Z,3280.00
2018-04-15T09:41:09.064Z,3280.00
2018-04-15T09:42:09.004Z,3200.00
2018-04-15T09:43:08.946Z,3156.00
2018-04-15T09:44:08.883Z,3196.00
2018-04-15T09:45:08.819Z,3452.00
2018-04-15T09:46:08.762Z,3700.00
2018-04-15T09:47:08.706Z,3708.00
2018-04-15T09:48:08.646Z,3708.00
2018-04-15T09:49:08.583Z,3776.00
2018-04-15T09:50:08.523Z,3424.00
2018-04-15T09:51:08.465Z,3060.00
2018-04-15T09:52:08.404Z,2892.00
2018-04-15T09:53:08.344Z,2920.00
2018-04-15T09:54:08.288Z,2952.00
2018-04-15T09:55:08.225Z,3196.00
2018-04-15T09:56:08.165Z,3464.00
2018-04-15T09:57:08.111Z,3440.00
2018-04-15T09:58:08.043Z,3396.00
2018-04-15T09:59:08.033Z,3540.00
2018-04-15T10:00:07.928Z,3780.00
2018-04-15T10:01:07.866Z,3484.00
2018-04-15T10:02:07.805Z,3364.00
2018-04-15T10:03:07.749Z,3388.00
2018-04-15T10:04:07.701Z,3468.00
2018-04-15T10:05:07.625Z,3352.00
2018-04-15T10:06:07.569Z,3800.00
2018-04-15T10:07:07.509Z,3692.00
2018-04-15T10:08:07.449Z,3880.00
2018-04-15T10:09:07.396Z,3756.00
2018-04-15T10:10:07.332Z,3480.00
2018-04-15T10:11:07.272Z,3304.00
2018-04-15T10:12:07.215Z,3264.00
2018-04-15T10:13:07.155Z,3172.00
2018-04-15T10:14:07.097Z,3012.00
2018-04-15T10:15:07.038Z,2768.00
2018-04-15T10:16:06.977Z,2672.00
2018-04-15T10:17:06.919Z,2168.00
2018-04-15T10:18:06.860Z,2176.00
2018-04-15T10:19:06.798Z,2184.00
2018-04-15T10:20:06.743Z,2384.00
2018-04-15T10:21:06.687Z,2624.00
2018-04-15T10:22:06.630Z,2904.00
2018-04-15T10:23:06.568Z,3412.00
2018-04-15T10:24:06.574Z,3992.00
2018-04-15T10:25:06.455Z,4032.00
2018-04-15T10:26:06.387Z,4080.00
2018-04-15T10:27:06.334Z,4124.00
2018-04-15T10:28:06.274Z,4096.00
2018-04-15T10:29:06.215Z,4132.00
2018-04-15T10:30:06.159Z,4152.00
2018-04-15T10:31:06.103Z,4112.00
2018-04-15T10:32:06.039Z,3892.00
2018-04-15T10:33:05.981Z,3588.00
2018-04-15T10:34:05.920Z,3644.00
2018-04-15T10:35:05.866Z,3380.00
2018-04-15T10:36:05.805Z,3292.00
2018-04-15T10:37:05.748Z,3184.00
2018-04-15T10:38:05.691Z,3352.00
2018-04-15T10:39:05.634Z,3296.00
2018-04-15T10:40:05.574Z,2732.00
2018-04-15T10:41:05.520Z,2592.00
2018-04-15T10:42:05.458Z,2676.00
2018-04-15T10:43:05.398Z,2208.00
2018-04-15T10:44:05.342Z,2128.00
2018-04-15T10:45:05.286Z,2296.00
2018-04-15T10:46:05.266Z,2764.00
2018-04-15T10:47:05.167Z,2416.00
2018-04-15T10:48:05.112Z,2364.00
2018-04-15T10:49:05.049Z,2672.00
2018-04-15T10:50:04.993Z,2876.00
2018-04-15T10:51:04.934Z,2796.00
2018-04-15T10:52:04.875Z,2936.00
2018-04-15T10:53:04.818Z,3360.00
2018-04-15T10:54:04.759Z,3360.00
2018-04-15T10:55:04.702Z,2828.00
2018-04-15T10:56:04.653Z,2764.00
2018-04-15T10:57:04.583Z,2888.00
2018-04-15T10:58:04.524Z,2464.00
2018-04-15T10:59:04.468Z,2508.00
2018-04-15T11:00:04.409Z,2652.00
2018-04-15T11:01:04.357Z,2376.00
2018-04-15T11:02:04.293Z,2492.00
2018-04-15T11:03:04.240Z,2404.00
2018-04-15T11:04:04.178Z,2472.00
2018-04-15T11:05:04.118Z,2476.00
2018-04-15T11:06:04.062Z,2588.00
2018-04-15T11:07:04.004Z,2604.00
2018-04-15T11:08:03.946Z,2604.00
2018-04-15T11:09:03.889Z,2504.00
2018-04-15T11:10:03.828Z,2560.00
2018-04-15T11:11:03.773Z,2568.00
2018-04-15T11:12:03.712Z,2688.00
2018-04-15T11:13:03.654Z,2744.00
2018-04-15T11:14:03.615Z,2680.00
2018-04-15T11:15:03.538Z,2632.00
2018-04-15T11:16:03.480Z,2688.00
2018-04-15T11:17:03.425Z,2764.00
2018-04-15T11:18:03.364Z,2844.00
2018-04-15T11:19:03.307Z,2900.00
2018-04-15T11:20:03.314Z,3092.00
2018-04-15T11:21:03.191Z,3380.00
2018-04-15T11:22:03.135Z,3396.00
2018-04-15T11:23:03.076Z,3480.00
2018-04-15T11:24:03.015Z,3532.00
2018-04-15T11:25:02.957Z,3244.00
2018-04-15T11:26:02.900Z,3040.00
2018-04-15T11:27:02.842Z,2900.00
2018-04-15T11:28:02.785Z,2684.00
2018-04-15T11:29:02.726Z,2560.00
2018-04-15T11:30:02.666Z,2512.00
2018-04-15T11:31:02.612Z,2488.00
2018-04-15T11:32:02.554Z,2440.00
2018-04-15T11:33:02.495Z,2400.00
2018-04-15T11:34:02.488Z,2356.00
2018-04-15T11:35:02.378Z,2324.00
2018-04-15T11:36:02.319Z,2328.00
2018-04-15T11:37:02.261Z,2380.00
2018-04-15T11:38:02.204Z,2508.00
2018-04-15T11:39:02.145Z,2672.00
2018-04-15T11:40:02.092Z,2812.00
2018-04-15T11:41:02.031Z,2908.00
2018-04-15T11:42:02.004Z,2992.00
2018-04-15T11:43:01.914Z,3040.00
2018-04-15T11:44:01.854Z,3052.00
2018-04-15T11:45:01.797Z,3028.00
2018-04-15T11:46:01.739Z,2968.00
2018-04-15T11:47:01.681Z,2892.00
2018-04-15T11:48:01.626Z,2828.00
2018-04-15T11:49:01.564Z,2804.00
2018-04-15T11:50:01.506Z,2812.00
2018-04-15T11:51:01.448Z,2816.00
2018-04-15T11:52:01.393Z,2820.00
2018-04-15T11:53:01.334Z,2848.00
2018-04-15T11:54:01.276Z,2860.00
2018-04-15T11:55:01.227Z,2888.00
2018-04-15T11:56:01.162Z,2968.00
2018-04-15T11:57:01.106Z,3008.00
2018-04-15T11:58:01.078Z,3116.00
2018-04-15T11:59:00.995Z,3060.00
2018-04-15T12:00:00.929Z,2996.00
2018-04-15T12:01:00.870Z,2884.00
2018-04-15T12:02:00.813Z,2768.00
2018-04-15T12:03:00.751Z,2700.00
2018-04-15T12:04:00.692Z,2684.00
2018-04-15T12:05:00.641Z,2692.00
2018-04-15T12:06:00.581Z,2700.00
2018-04-15T12:07:00.521Z,2740.00
2018-04-15T12:08:00.464Z,2732.00
2018-04-15T12:09:00.407Z,2712.00
2018-04-15T12:10:00.348Z,2688.00
2018-04-15T12:11:00.298Z,2644.00
2018-04-15T12:12:00.229Z,2596.00
2018-04-15T12:13:00.172Z,2572.00
2018-04-15T12:14:00.115Z,2568.00
2018-04-15T12:15:00.061Z,2576.00
2018-04-15T12:16:00.000Z,2636.00
2018-04-15T12:16:59.940Z,2800.00
2018-04-15T12:17:59.882Z,3008.00
2018-04-15T12:18:59.823Z,3004.00
2018-04-15T12:19:59.771Z,2944.00
2018-04-15T12:20:59.710Z,2952.00
2018-04-15T12:21:59.649Z,2876.00
2018-04-15T12:22:59.592Z,2792.00
2018-04-15T12:23:59.537Z,2776.00
2018-04-15T12:24:59.475Z,2784.00
2018-04-15T12:25:59.428Z,2764.00
2018-04-15T12:26:59.359Z,2732.00
2018-04-15T12:27:59.302Z,2680.00
2018-04-15T12:28:59.248Z,2684.00
2018-04-15T12:29:59.183Z,2772.00
2018-04-15T12:30:59.127Z,2748.00
2018-04-15T12:31:59.074Z,2740.00
2018-04-15T12:32:59.009Z,2800.00
2018-04-15T12:33:59.006Z,2924.00
2018-04-15T12:34:58.904Z,2988.00